Time;durP1;ratioP1;P1;durP2;ratioP2;P2;SDS_P1;SDS_P2;PMS_P1;PMS_P2;Temp;Humidity;BMP_temperature;BMP_pressure;BME280_temperature;BME280_humidity;BME280_pressure;Samples;Min_cycle;Max_cycle;Signal;HPM_P1;HPM_P2
2023/03/10 00:00:44;;;;;;;51.50;29.10;;;;;;;5.84;100.00;96451.33;105992;1256;61336;-78
2023/03/10 00:03:21;;;;;;;53.80;32.50;;;;;;;5.88;100.00;96448.73;105971;1260;74608;-79
2023/03/10 00:05:47;;;;;;;80.70;47.80;;;;;;;5.90;100.00;96449.55;105819;1256;61258;-78
2023/03/10 00:08:14;;;;;;;93.50;54.80;;;;;;;5.92;100.00;96448.09;105835;1260;61419;-78
2023/03/10 00:10:40;;;;;;;78.10;49.50;;;;;;;5.92;100.00;96440.38;105835;1260;61330;-79
2023/03/10 00:13:07;;;;;;;87.90;56.10;;;;;;;5.94;100.00;96433.95;106006;1258;61347;-78
2023/03/10 00:15:33;;;;;;;70.40;43.20;;;;;;;5.94;100.00;96428.58;105923;1260;61258;-79
2023/03/10 00:18:00;;;;;;;77.60;47.40;;;;;;;5.94;100.00;96436.17;105846;1257;61381;-79
2023/03/10 00:20:26;;;;;;;66.70;42.00;;;;;;;5.93;100.00;96436.88;105850;1257;61351;-79
2023/03/10 00:22:52;;;;;;;72.20;41.90;;;;;;;5.89;100.00;96433.35;105788;1259;61357;-79
2023/03/10 00:25:19;;;;;;;70.40;39.20;;;;;;;5.86;100.00;96432.69;105829;1262;63231;-80
2023/03/10 00:27:45;;;;;;;79.70;44.80;;;;;;;5.81;100.00;96429.90;105922;1256;61331;-76
2023/03/10 00:30:12;;;;;;;72.90;39.10;;;;;;;5.77;100.00;96432.15;105805;1256;61694;-77
2023/03/10 01:34:17;;;;;;;81.60;48.80;;;;;;;4.54;100.00;96375.00;105762;1257;61328;-79
2023/03/10 01:36:43;;;;;;;72.10;45.90;;;;;;;4.49;100.00;96376.48;106376;1260;61275;-77
2023/03/10 01:39:10;;;;;;;69.00;43.00;;;;;;;4.45;100.00;96383.91;105953;1256;61368;-77
2023/03/10 01:41:38;;;;;;;70.80;42.80;;;;;;;4.44;100.00;96386.50;105971;1260;61237;-77
2023/03/10 01:44:04;;;;;;;71.70;43.80;;;;;;;4.40;100.00;96385.24;105921;1260;72372;-77
2023/03/10 01:46:43;;;;;;;81.00;47.70;;;;;;;4.38;100.00;96380.65;105976;1260;61226;-77
2023/03/10 01:49:16;;;;;;;65.80;40.30;;;;;;;4.37;100.00;96380.06;105880;1260;137107;-77
2023/03/10 01:51:44;;;;;;;67.00;40.60;;;;;;;4.35;100.00;96373.64;106004;1260;74260;-77
2023/03/10 01:54:15;;;;;;;63.90;39.40;;;;;;;4.31;100.00;96374.36;105993;1256;70030;-77
2023/03/10 01:56:41;;;;;;;57.10;35.00;;;;;;;4.22;100.00;96364.45;106001;1260;72654;-77
2023/03/10 01:59:08;;;;;;;51.90;33.90;;;;;;;4.08;100.00;96364.61;105958;1256;61330;-77
2023/03/10 02:01:34;;;;;;;38.90;27.30;;;;;;;3.97;100.00;96357.21;105983;1258;61824;-77
2023/03/10 02:04:04;;;;;;;37.30;21.70;;;;;;;3.86;100.00;96352.57;106011;1260;61251;-76
2023/03/10 02:06:30;;;;;;;23.50;15.70;;;;;;;3.82;100.00;96347.01;107940;1260;69775;-77
2023/03/10 02:08:57;;;;;;;27.50;18.20;;;;;;;3.81;100.00;96351.73;105977;1260;59266;-77
2023/03/10 02:11:24;;;;;;;30.50;18.90;;;;;;;3.81;100.00;96354.20;105987;1259;61277;-77
2023/03/10 02:13:50;;;;;;;20.20;14.60;;;;;;;3.80;100.00;96357.74;106007;1261;61339;-77
2023/03/10 02:16:17;;;;;;;20.80;12.10;;;;;;;3.73;100.00;96357.45;105982;1260;74538;-78
2023/03/10 02:18:44;;;;;;;17.60;10.30;;;;;;;3.69;100.00;96356.09;106031;1261;61022;-77
2023/03/10 02:21:46;;;;;;;13.10;9.20;;;;;;;3.65;100.00;96355.02;105972;1256;72629;-77
2023/03/10 02:24:13;;;;;;;12.60;8.20;;;;;;;3.65;100.00;96353.52;105948;1261;61260;-77
2023/03/10 02:26:53;;;;;;;15.00;10.00;;;;;;;3.66;100.00;96351.97;105926;1260;61251;-77
2023/03/10 02:29:45;;;;;;;16.30;9.10;;;;;;;3.71;100.00;96357.69;106014;1261;75743;-77
2023/03/10 02:32:11;;;;;;;28.70;16.50;;;;;;;3.75;100.00;96357.98;105956;1260;70992;-77
2023/03/10 02:34:38;;;;;;;19.70;12.80;;;;;;;3.75;100.00;96354.61;106012;1261;71385;-77
2023/03/10 02:37:04;;;;;;;20.70;13.40;;;;;;;3.74;100.00;96350.27;105910;1262;61282;-77
2023/03/10 02:39:30;;;;;;;22.70;11.90;;;;;;;3.67;100.00;96347.46;105835;1256;61275;-76
2023/03/10 02:41:57;;;;;;;23.10;15.70;;;;;;;3.57;100.00;96350.84;105969;1262;61385;-78
2023/03/10 02:44:23;;;;;;;28.30;16.50;;;;;;;3.54;100.00;96346.40;106025;1260;61331;-78
2023/03/10 02:46:50;;;;;;;30.90;17.40;;;;;;;3.49;100.00;96347.88;105916;1260;61869;-77
2023/03/10 02:49:16;;;;;;;26.30;18.30;;;;;;;3.49;100.00;96346.05;105958;1257;61389;-78
2023/03/10 02:51:45;;;;;;;26.30;17.10;;;;;;;3.43;100.00;96345.45;106024;1260;61295;-78
2023/03/10 02:54:11;;;;;;;46.10;28.90;;;;;;;3.38;100.00;96339.62;109181;1256;72468;-77
2023/03/10 02:56:38;;;;;;;44.20;27.80;;;;;;;3.34;100.00;96337.82;108087;1257;69359;-78
2023/03/10 02:59:05;;;;;;;54.50;34.80;;;;;;;3.25;100.00;96335.77;106128;1258;71735;-78
2023/03/10 03:01:31;;;;;;;64.70;43.20;;;;;;;3.25;100.00;96338.86;106019;1260;61333;-78
2023/03/10 03:03:58;;;;;;;68.50;41.20;;;;;;;3.30;100.00;96339.92;105835;1257;61327;-77
2023/03/10 03:06:24;;;;;;;39.70;26.60;;;;;;;3.34;100.00;96335.73;105971;1256;61203;-78
2023/03/10 03:08:51;;;;;;;39.00;24.90;;;;;;;3.28;100.00;96330.67;105955;1259;61254;-77
2023/03/10 03:11:17;;;;;;;38.70;26.60;;;;;;;3.26;100.00;96324.42;105927;1258;61999;-77
2023/03/10 03:13:44;;;;;;;52.80;34.70;;;;;;;3.25;100.00;96320.77;105932;1257;61359;-77
2023/03/10 03:16:10;;;;;;;36.70;26.20;;;;;;;3.26;100.00;96322.81;105974;1260;61433;-66
2023/03/10 03:18:37;;;;;;;32.20;22.00;;;;;;;3.23;100.00;96315.37;105424;1261;61334;-65
2023/03/10 03:21:09;;;;;;;37.90;23.90;;;;;;;3.17;100.00;96313.27;105383;1264;61280;-65
2023/03/10 03:23:36;;;;;;;40.80;25.70;;;;;;;3.08;100.00;96305.73;109216;1256;71419;-65
2023/03/10 03:26:04;;;;;;;35.50;23.40;;;;;;;3.04;100.00;96311.59;109180;1257;58932;-67
2023/03/10 03:28:30;;;;;;;35.10;23.30;;;;;;;2.99;100.00;96308.66;109196;1256;59237;-66
2023/03/10 03:31:19;;;;;;;35.10;23.10;;;;;;;2.98;100.00;96306.56;106541;1258;74520;-66
2023/03/10 03:33:46;;;;;;;27.50;17.10;;;;;;;2.97;100.00;96302.23;109174;1255;71062;-66
2023/03/10 03:55:06;;;;;;;36.30;22.10;;;;;;;2.62;100.00;96279.17;105809;1258;73828;-70
2023/03/10 03:57:32;;;;;;;45.00;24.10;;;;;;;2.54;100.00;96273.35;105861;1260;62161;-69
2023/03/10 03:59:59;;;;;;;51.50;27.40;;;;;;;2.49;100.00;96269.90;105340;1259;61353;-68
2023/03/10 04:02:25;;;;;;;45.60;25.50;;;;;;;2.42;100.00;96265.09;105311;1260;61239;-68
2023/03/10 04:04:53;;;;;;;39.50;23.90;;;;;;;2.38;100.00;96259.84;105232;1260;61333;-69
2023/03/10 04:07:19;;;;;;;33.10;21.10;;;;;;;2.33;100.00;96250.09;105831;1261;73124;-68
2023/03/10 04:09:45;;;;;;;35.20;19.50;;;;;;;2.28;100.00;96247.09;105716;1260;61276;-67
2023/03/10 04:12:12;;;;;;;33.10;18.50;;;;;;;2.25;100.00;96237.69;105428;1257;61343;-68
2023/03/10 04:14:38;;;;;;;44.60;26.30;;;;;;;2.20;100.00;96230.41;105173;1269;61360;-68
2023/03/10 04:17:04;;;;;;;39.20;22.30;;;;;;;2.19;100.00;96227.00;106659;1259;61456;-68
2023/03/10 04:19:31;;;;;;;40.90;22.70;;;;;;;2.15;100.00;96220.55;105201;1261;61266;-67
2023/03/10 04:21:57;;;;;;;28.50;17.40;;;;;;;2.09;100.00;96215.11;107578;1256;61218;-67
2023/03/10 04:24:24;;;;;;;35.80;20.40;;;;;;;2.05;100.00;96216.50;109071;1257;59114;-67
2023/03/10 04:26:50;;;;;;;30.50;17.90;;;;;;;2.04;100.00;96214.52;109079;1256;59050;-67
2023/03/10 04:29:17;;;;;;;31.00;19.00;;;;;;;2.04;100.00;96204.30;109220;1257;59086;-68
2023/03/10 04:31:43;;;;;;;28.90;20.10;;;;;;;2.00;100.00;96197.05;108975;1256;59376;-68
2023/03/10 04:34:10;;;;;;;26.20;17.60;;;;;;;1.99;100.00;96191.71;107891;1260;61369;-68
2023/03/10 04:36:36;;;;;;;22.30;16.20;;;;;;;1.98;100.00;96183.98;105262;1260;61271;-68
2023/03/10 04:39:03;;;;;;;26.30;18.00;;;;;;;1.97;100.00;96182.27;105178;1259;61332;-69
2023/03/10 04:41:30;;;;;;;32.60;19.70;;;;;;;1.96;100.00;96183.80;105144;1258;61405;-74
2023/03/10 04:43:56;;;;;;;26.80;17.30;;;;;;;1.97;100.00;96183.64;106074;1259;61324;-69
2023/03/10 04:46:23;;;;;;;32.90;18.30;;;;;;;1.90;100.00;96175.21;107014;1256;61354;-69
2023/03/10 04:48:50;;;;;;;29.50;18.50;;;;;;;1.82;100.00;96175.11;105216;1260;61276;-78
2023/03/10 04:51:17;;;;;;;33.80;21.50;;;;;;;1.78;100.00;96167.09;106932;1257;74510;-68
2023/03/10 04:53:43;;;;;;;38.10;22.40;;;;;;;1.75;100.00;96160.21;108167;1256;59802;-68
2023/03/10 04:56:09;;;;;;;42.80;24.60;;;;;;;1.68;100.00;96160.16;107079;1257;61183;-68
2023/03/10 04:58:36;;;;;;;40.20;22.70;;;;;;;1.64;100.00;96159.54;107341;1255;61246;-68
2023/03/10 05:01:07;;;;;;;39.50;22.10;;;;;;;1.62;100.00;96164.12;106675;1258;61267;-68
2023/03/10 05:03:34;;;;;;;34.50;20.30;;;;;;;1.61;100.00;96165.98;105570;1257;74084;-68
2023/03/10 05:06:00;;;;;;;36.20;23.00;;;;;;;1.58;100.00;96162.73;106784;1255;61248;-68
2023/03/10 05:08:27;;;;;;;31.50;19.90;;;;;;;1.57;100.00;96150.88;109223;1256;71443;-68
2023/03/10 05:10:53;;;;;;;46.60;27.30;;;;;;;1.56;100.00;96154.30;106949;1256;61247;-68
2023/03/10 05:13:20;;;;;;;45.80;28.20;;;;;;;1.57;100.00;96149.98;105373;1258;61319;-68
2023/03/10 05:15:47;;;;;;;47.70;27.40;;;;;;;1.58;100.00;96149.70;105326;1261;61350;-68
2023/03/10 05:18:14;;;;;;;40.50;24.10;;;;;;;1.59;100.00;96154.71;105324;1261;70253;-68
2023/03/10 05:20:40;;;;;;;35.40;21.80;;;;;;;1.58;100.00;96152.95;105331;1260;61224;-68
2023/03/10 05:23:07;;;;;;;35.60;23.00;;;;;;;1.60;100.00;96158.88;105275;1257;61288;-67
2023/03/10 05:25:35;;;;;;;32.90;21.30;;;;;;;1.63;100.00;96148.59;105210;1261;61304;-68
2023/03/10 05:28:01;;;;;;;34.00;20.90;;;;;;;1.62;100.00;96147.63;106659;1258;74003;-68
2023/03/10 05:30:28;;;;;;;52.80;30.90;;;;;;;1.59;100.00;96148.73;105269;1258;70355;-68
2023/03/10 05:32:54;;;;;;;56.40;33.10;;;;;;;1.62;100.00;96144.52;105407;1257;72782;-68
2023/03/10 05:35:21;;;;;;;54.80;34.10;;;;;;;1.68;100.00;96135.44;105298;1256;61276;-68
2023/03/10 05:37:47;;;;;;;51.50;31.20;;;;;;;1.71;100.00;96140.94;105311;1259;61325;-68
2023/03/10 05:40:15;;;;;;;40.40;27.50;;;;;;;1.72;100.00;96134.33;105289;1258;61320;-68
2023/03/10 05:42:41;;;;;;;48.60;28.30;;;;;;;1.73;100.00;96128.55;105320;1260;70646;-68
2023/03/10 05:45:09;;;;;;;45.90;27.40;;;;;;;1.76;100.00;96124.74;105274;1260;73031;-77
2023/03/10 05:47:36;;;;;;;48.20;28.00;;;;;;;1.80;100.00;96123.14;106548;1260;61119;-80
2023/03/10 05:50:02;;;;;;;40.70;25.40;;;;;;;1.83;100.00;96118.96;106130;1257;61248;-78
2023/03/10 05:52:29;;;;;;;46.80;26.30;;;;;;;1.85;100.00;96111.53;106051;1258;73357;-78
2023/03/10 05:54:55;;;;;;;98.20;48.60;;;;;;;1.84;100.00;96103.85;106366;1258;61330;-78
2023/03/10 05:57:21;;;;;;;74.90;41.30;;;;;;;1.86;100.00;96092.52;106791;1257;61231;-81
2023/03/10 05:59:48;;;;;;;75.00;41.00;;;;;;;1.91;100.00;96095.98;106127;1256;61337;-79
2023/03/10 06:02:14;;;;;;;66.20;39.50;;;;;;;2.00;100.00;96092.27;106521;1257;62472;-78
2023/03/10 06:04:41;;;;;;;64.70;39.50;;;;;;;2.03;100.00;96088.95;106157;1258;61363;-77
2023/03/10 06:07:07;;;;;;;62.80;35.90;;;;;;;2.06;100.00;96081.41;106048;1257;61332;-77
2023/03/10 06:09:34;;;;;;;59.90;32.50;;;;;;;2.06;100.00;96077.25;105980;1257;61355;-80
2023/03/10 06:12:01;;;;;;;31.60;19.50;;;;;;;2.10;100.00;96071.23;105997;1257;61248;-78
2023/03/10 06:14:28;;;;;;;37.80;25.90;;;;;;;2.15;100.00;96068.40;105995;1257;62317;-77
2023/03/10 06:16:54;;;;;;;38.50;27.80;;;;;;;2.20;100.00;96065.75;106482;1260;61602;-78
2023/03/10 06:19:21;;;;;;;43.20;26.10;;;;;;;2.27;100.00;96062.25;106472;1258;61347;-78
2023/03/10 06:21:47;;;;;;;38.70;27.00;;;;;;;2.35;100.00;96061.58;106057;1257;71495;-78
2023/03/10 06:24:14;;;;;;;46.60;27.90;;;;;;;2.43;100.00;96065.44;105932;1255;61340;-81
2023/03/10 06:26:40;;;;;;;48.30;29.40;;;;;;;2.52;100.00;96053.15;105999;1260;61182;-80
2023/03/10 06:29:07;;;;;;;42.90;29.40;;;;;;;2.60;100.00;96053.33;106087;1258;61135;-80
2023/03/10 06:31:33;;;;;;;43.00;28.20;;;;;;;2.69;100.00;96047.76;106331;1258;61249;-80
2023/03/10 06:34:00;;;;;;;32.00;21.00;;;;;;;2.84;100.00;96049.10;106114;1261;62164;-78
2023/03/10 06:36:26;;;;;;;31.10;18.10;;;;;;;3.01;100.00;96046.15;106059;1258;61285;-80
2023/03/10 06:38:53;;;;;;;26.90;17.20;;;;;;;3.14;100.00;96039.25;106021;1261;61289;-80
2023/03/10 06:41:20;;;;;;;24.10;15.60;;;;;;;3.30;100.00;96044.47;106259;1257;73532;-79
2023/03/10 06:43:46;;;;;;;25.20;15.90;;;;;;;3.48;100.00;96043.41;106169;1257;69764;-78
2023/03/10 06:46:13;;;;;;;31.10;20.90;;;;;;;3.67;100.00;96041.88;106116;1257;62430;-78
2023/03/10 06:48:40;;;;;;;35.70;24.80;;;;;;;3.86;100.00;96035.41;106131;1254;61297;-78
2023/03/10 06:51:09;;;;;;;47.00;30.10;;;;;;;4.08;100.00;96033.89;106192;1256;61221;-80
2023/03/10 06:53:36;;;;;;;38.40;25.50;;;;;;;4.29;100.00;96023.12;106053;1257;74449;-79
2023/03/10 06:56:04;;;;;;;44.90;26.90;;;;;;;4.50;100.00;96018.49;106270;1256;62171;-79
2023/03/10 06:58:31;;;;;;;40.70;24.00;;;;;;;4.84;100.00;96016.62;106448;1256;74182;-80
2023/03/10 07:00:58;;;;;;;39.40;23.20;;;;;;;5.44;100.00;96008.08;106478;1260;60502;-79
2023/03/10 07:03:25;;;;;;;48.00;22.20;;;;;;;5.80;100.00;96003.95;106288;1260;61257;-78
2023/03/10 07:05:51;;;;;;;30.40;19.10;;;;;;;6.13;100.00;96000.21;106405;1260;77044;-81
2023/03/10 07:08:18;;;;;;;39.90;21.30;;;;;;;6.56;100.00;95992.20;106056;1256;70831;-78
2023/03/10 07:10:45;;;;;;;22.20;13.50;;;;;;;7.21;100.00;95984.28;106205;1255;62189;-78
2023/03/10 07:13:14;;;;;;;17.90;9.40;;;;;;;7.75;100.00;95995.78;106281;1257;61214;-79
2023/03/10 07:15:41;;;;;;;11.10;4.20;;;;;;;8.32;100.00;95995.96;106890;1257;61167;-81
2023/03/10 07:18:07;;;;;;;4.80;2.00;;;;;;;9.06;100.00;95989.20;107142;1257;74505;-79
2023/03/10 07:20:33;;;;;;;3.70;1.70;;;;;;;9.61;100.00;95992.55;107047;1255;61263;-80
2023/03/10 07:23:00;;;;;;;4.20;1.60;;;;;;;10.24;100.00;95994.30;106313;1260;61234;-80
2023/03/10 07:25:26;;;;;;;3.60;1.90;;;;;;;11.26;99.72;95997.49;106375;1256;61743;-78
2023/03/10 07:27:53;;;;;;;5.00;3.10;;;;;;;12.38;96.26;95998.11;106167;1256;61354;-78
2023/03/10 07:30:19;;;;;;;3.50;1.70;;;;;;;13.35;89.12;95999.55;106111;1255;61128;-78
2023/03/10 07:32:46;;;;;;;5.00;1.90;;;;;;;14.49;92.56;95993.88;106040;1256;61325;-81
2023/03/10 07:35:12;;;;;;;19.50;11.70;;;;;;;15.58;86.80;95996.31;106106;1257;61680;-79
2023/03/10 07:37:39;;;;;;;5.00;1.70;;;;;;;16.34;77.02;95994.73;106112;1257;63261;-79
2023/03/10 07:40:06;;;;;;;3.30;1.90;;;;;;;16.07;78.33;95995.86;106114;1258;61989;-77
2023/03/10 07:42:33;;;;;;;4.40;2.00;;;;;;;16.17;77.78;95993.76;106071;1256;75726;-81
2023/03/10 07:44:59;;;;;;;2.70;2.00;;;;;;;15.61;78.68;95996.33;106024;1257;61337;-80
2023/03/10 07:47:26;;;;;;;4.10;1.90;;;;;;;15.50;76.62;95997.96;106110;1257;61354;-80
2023/03/10 07:49:52;;;;;;;8.00;3.70;;;;;;;15.88;79.22;95994.50;106506;1256;61227;-78
2023/03/10 07:52:19;;;;;;;4.10;1.30;;;;;;;15.79;76.92;95995.42;106558;1260;61334;-80
2023/03/10 07:54:46;;;;;;;4.50;1.30;;;;;;;15.74;73.53;95995.65;106017;1256;61305;-78
2023/03/10 07:57:12;;;;;;;3.90;1.40;;;;;;;15.72;68.48;95994.45;106081;1261;71165;-80
2023/03/10 07:59:39;;;;;;;5.50;1.30;;;;;;;15.56;64.63;95989.73;106125;1259;71442;-79
2023/03/10 08:02:06;;;;;;;2.90;1.10;;;;;;;15.86;67.25;95992.67;106002;1256;61290;-77
2023/03/10 08:04:32;;;;;;;11.20;5.70;;;;;;;16.60;68.91;95996.03;105992;1255;61405;-80
2023/03/10 08:07:01;;;;;;;16.70;10.80;;;;;;;17.69;64.47;95991.55;106261;1260;74050;-78
2023/03/10 08:09:28;;;;;;;9.80;4.80;;;;;;;18.20;60.40;95988.88;106311;1256;70268;-80
2023/03/10 08:11:57;;;;;;;177.10;140.40;;;;;;;18.54;59.07;95985.34;106227;1256;73227;-79
2023/03/10 08:14:23;;;;;;;16.20;11.30;;;;;;;17.67;61.19;95986.52;105919;1258;61352;-79
2023/03/10 08:16:50;;;;;;;8.80;5.00;;;;;;;17.02;60.17;95992.91;105959;1260;61246;-78
2023/03/10 08:19:17;;;;;;;5.10;3.70;;;;;;;16.57;61.57;95994.80;105971;1256;74527;-78
2023/03/10 08:21:43;;;;;;;9.20;3.00;;;;;;;16.27;58.22;95987.61;105983;1256;61247;-78
2023/03/10 08:24:10;;;;;;;11.90;7.50;;;;;;;16.91;56.32;95984.60;105883;1256;72547;-78
2023/03/10 08:26:36;;;;;;;3.20;2.10;;;;;;;18.11;53.65;95982.29;105896;1256;61362;-79
2023/03/10 08:29:03;;;;;;;6.10;3.30;;;;;;;18.96;50.07;95979.38;105894;1256;61262;-80
2023/03/10 08:31:29;;;;;;;3.90;2.10;;;;;;;19.43;49.12;95972.33;105836;1256;61236;-81
2023/03/10 08:33:56;;;;;;;2.00;1.30;;;;;;;20.30;46.40;95968.30;105915;1258;61248;-81
2023/03/10 08:36:24;;;;;;;2.60;1.90;;;;;;;20.47;47.33;95963.38;106381;1256;71644;-77
2023/03/10 08:38:51;;;;;;;8.30;5.70;;;;;;;21.34;47.56;95956.70;106339;1257;61416;-80
2023/03/10 08:41:23;;;;;;;5.40;1.90;;;;;;;22.10;44.27;95954.83;106365;1256;61131;-78
2023/03/10 08:43:50;;;;;;;3.70;1.50;;;;;;;22.65;36.37;95949.92;106632;1256;74703;-78
2023/03/10 08:46:18;;;;;;;3.60;1.80;;;;;;;22.85;36.88;95945.41;106850;1256;71224;-78
2023/03/10 08:48:44;;;;;;;3.90;1.80;;;;;;;22.20;38.25;95946.66;106775;1256;71462;-79
2023/03/10 08:51:11;;;;;;;2.00;0.90;;;;;;;21.52;37.52;95948.98;106472;1256;61371;-80
2023/03/10 08:53:37;;;;;;;2.20;1.00;;;;;;;20.76;38.23;95947.70;106569;1257;61120;-79
2023/03/10 08:56:04;;;;;;;4.10;1.40;;;;;;;20.33;39.18;95949.36;106493;1256;61381;-79
2023/03/10 08:58:31;;;;;;;3.40;1.90;;;;;;;19.83;40.77;95940.59;106289;1256;69979;-79
2023/03/10 09:00:57;;;;;;;5.30;3.00;;;;;;;20.88;39.24;95939.58;106045;1258;73471;-78
2023/03/10 09:03:24;;;;;;;4.10;2.10;;;;;;;20.94;39.59;95940.36;106061;1256;61394;-79
2023/03/10 09:05:51;;;;;;;4.10;2.30;;;;;;;20.99;39.81;95939.24;105941;1258;61210;-79
2023/03/10 09:08:17;;;;;;;5.00;1.80;;;;;;;19.99;40.57;95932.74;106011;1255;74983;-79
2023/03/10 09:10:44;;;;;;;5.80;2.10;;;;;;;18.86;42.30;95932.27;106042;1256;61100;-79
2023/03/10 09:13:10;;;;;;;8.50;2.00;;;;;;;18.02;44.20;95935.62;106051;1254;61232;-80
2023/03/10 09:15:40;;;;;;;5.40;2.60;;;;;;;17.46;45.95;95933.72;106152;1258;61276;-80
2023/03/10 09:18:11;;;;;;;6.00;2.00;;;;;;;17.15;46.18;95933.27;106580;1255;61154;-80
2023/03/10 09:20:38;;;;;;;4.00;2.40;;;;;;;16.86;47.18;95942.98;105963;1256;74531;-78
2023/03/10 09:23:05;;;;;;;6.60;2.00;;;;;;;16.54;47.93;95946.73;106050;1257;69446;-78
2023/03/10 09:25:31;;;;;;;5.10;1.90;;;;;;;16.24;48.63;95941.11;106104;1256;71696;-79
2023/03/10 09:27:58;;;;;;;6.00;2.60;;;;;;;15.94;49.93;95942.01;105984;1256;61372;-80
2023/03/10 09:30:24;;;;;;;4.30;1.70;;;;;;;15.81;50.78;95951.01;105973;1256;62046;-79
2023/03/10 09:32:51;;;;;;;4.20;2.10;;;;;;;15.74;51.20;95942.76;105773;1260;61224;-79
2023/03/10 09:35:17;;;;;;;4.20;1.90;;;;;;;15.76;51.24;95943.73;106001;1260;61171;-78
2023/03/10 09:37:44;;;;;;;7.30;3.80;;;;;;;15.86;51.23;95937.04;105933;1256;61234;-79
2023/03/10 09:40:14;;;;;;;8.30;2.80;;;;;;;15.96;51.45;95938.92;105948;1255;61225;-79
2023/03/10 09:42:58;;;;;;;5.10;2.10;;;;;;;15.97;51.17;95931.85;106285;1256;61151;-79
2023/03/10 09:45:56;;;;;;;3.10;1.30;;;;;;;16.00;50.88;95927.67;105988;1256;74401;-78
2023/03/10 09:48:38;;;;;;;5.00;2.40;;;;;;;15.97;51.26;95929.50;105989;1256;69887;-80
2023/03/10 09:51:16;;;;;;;2.70;1.30;;;;;;;16.03;50.93;95931.17;105926;1256;72616;-82
2023/03/10 09:53:52;;;;;;;8.60;1.40;;;;;;;16.14;50.56;95933.61;105910;1261;61280;-80
2023/03/10 09:56:32;;;;;;;6.60;1.60;;;;;;;16.21;49.97;95928.17;107048;1256;61163;-81
2023/03/10 09:59:11;;;;;;;3.40;1.90;;;;;;;16.28;50.39;95922.73;106402;1256;73273;-77
2023/03/10 10:01:39;;;;;;;;;;;;;;;16.30;50.30;95920.98;106240;1260;71003;-78
2023/03/10 10:04:30;;;;;;;4.40;1.70;;;;;;;16.39;50.73;95923.05;105958;1256;71466;-81
2023/03/10 10:06:57;;;;;;;6.60;1.50;;;;;;;16.45;50.80;95916.91;105964;1256;61318;-80
2023/03/10 10:09:24;;;;;;;12.20;2.10;;;;;;;16.51;50.55;95920.67;106005;1256;61270;-79
2023/03/10 10:11:51;;;;;;;11.20;2.30;;;;;;;16.64;49.30;95919.07;106586;1256;74555;-79
2023/03/10 10:14:19;;;;;;;3.30;1.40;;;;;;;16.58;49.37;95913.67;106482;1256;61264;-81
2023/03/10 10:16:55;;;;;;;11.00;4.20;;;;;;;16.58;49.31;95911.55;106506;1260;72946;-79
2023/03/10 10:19:23;;;;;;;3.90;1.80;;;;;;;16.68;48.92;95907.40;106502;1256;61116;-81
2023/03/10 10:21:57;;;;;;;5.00;2.40;;;;;;;16.68;49.10;95908.73;106600;1260;61214;-79
2023/03/10 10:24:24;;;;;;;4.70;1.70;;;;;;;16.76;49.54;95905.73;106529;1256;75776;-81
2023/03/10 10:26:50;;;;;;;13.00;2.10;;;;;;;16.82;49.65;95897.38;106484;1256;61530;-80
2023/03/10 10:29:24;;;;;;;6.80;2.50;;;;;;;16.90;49.26;95898.25;106477;1258;61256;-81
2023/03/10 10:32:11;;;;;;;5.00;1.90;;;;;;;16.85;48.08;95895.85;106595;1260;61147;-78
2023/03/10 10:34:39;;;;;;;5.50;1.10;;;;;;;16.79;48.96;95895.78;106120;1257;61215;-78
2023/03/10 10:37:26;;;;;;;9.60;1.70;;;;;;;16.85;48.98;95888.44;106404;1255;74591;-80
2023/03/10 10:39:53;;;;;;;11.70;3.50;;;;;;;16.79;48.66;95884.76;106075;1256;70865;-79
2023/03/10 10:42:24;;;;;;;3.60;1.40;;;;;;;16.76;49.18;95882.85;107086;1256;72652;-78
2023/03/10 10:44:57;;;;;;;13.20;3.00;;;;;;;16.76;49.92;95879.09;106061;1260;61298;-80
2023/03/10 10:47:24;;;;;;;7.20;3.30;;;;;;;16.74;48.89;95875.70;105958;1256;61348;-79
2023/03/10 10:49:51;;;;;;;5.00;2.70;;;;;;;16.72;48.38;95874.34;106093;1260;74577;-79
2023/03/10 10:52:24;;;;;;;3.60;1.90;;;;;;;16.77;47.72;95865.66;106371;1255;69333;-80
2023/03/10 10:54:57;;;;;;;5.10;2.90;;;;;;;16.72;48.12;95861.22;105990;1256;72542;-78
2023/03/10 10:57:31;;;;;;;16.20;5.00;;;;;;;16.71;49.01;95863.48;106255;1254;60879;-78
2023/03/10 11:00:30;;;;;;;5.00;2.40;;;;;;;16.76;48.93;95859.65;106034;1255;61435;-79
2023/03/10 11:02:57;;;;;;;4.50;2.40;;;;;;;16.79;48.61;95851.55;106029;1258;73587;-79
2023/03/10 11:05:30;;;;;;;5.50;2.10;;;;;;;16.79;48.49;95851.70;105979;1260;70709;-79
2023/03/10 11:08:26;;;;;;;6.10;2.70;;;;;;;16.78;48.90;95847.24;105991;1255;73084;-79
2023/03/10 11:10:59;;;;;;;6.80;2.00;;;;;;;16.82;48.76;95840.41;105923;1256;61338;-78
2023/03/10 11:13:40;;;;;;;8.30;2.70;;;;;;;16.85;49.00;95837.79;106145;1255;61223;-80
2023/03/10 11:16:27;;;;;;;3.50;1.70;;;;;;;16.83;48.56;95837.07;105953;1256;73447;-80
2023/03/10 11:19:14;;;;;;;4.70;2.40;;;;;;;16.75;47.94;95827.27;105965;1261;70461;-79
2023/03/10 11:21:43;;;;;;;6.80;2.30;;;;;;;16.63;48.68;95830.08;107558;1255;72377;-80
2023/03/10 11:24:15;;;;;;;5.70;1.90;;;;;;;16.63;49.42;95828.03;109031;1255;59173;-81
2023/03/10 11:26:51;;;;;;;3.80;1.80;;;;;;;16.61;48.52;95820.98;107746;1255;61252;-78
2023/03/10 11:29:59;;;;;;;8.60;3.00;;;;;;;16.51;48.51;95824.98;106677;1256;74571;-79
2023/03/10 11:32:32;;;;;;;3.90;2.10;;;;;;;16.37;48.81;95820.96;106547;1255;71548;-80
2023/03/10 11:34:58;;;;;;;9.10;2.60;;;;;;;16.27;48.77;95822.02;106506;1256;71390;-78
2023/03/10 11:37:28;;;;;;;7.60;2.50;;;;;;;16.29;48.72;95823.05;106374;1258;61357;-80
2023/03/10 11:40:14;;;;;;;6.20;3.00;;;;;;;16.30;48.53;95818.48;105940;1256;61172;-80
2023/03/10 11:42:50;;;;;;;8.80;3.10;;;;;;;16.25;48.57;95812.63;106890;1255;74601;-80
2023/03/10 11:45:47;;;;;;;5.00;2.10;;;;;;;16.25;49.51;95812.23;105889;1256;70287;-80
2023/03/10 11:48:35;;;;;;;5.40;2.20;;;;;;;16.28;49.40;95803.30;106018;1255;72544;-79
2023/03/10 11:51:03;;;;;;;;;;;;;;;16.30;49.02;95805.27;106162;1260;59376;-79
2023/03/10 11:53:32;;;;;;;11.80;3.60;;;;;;;16.31;48.93;95805.59;106204;1260;61065;-79
2023/03/10 11:55:59;;;;;;;6.80;2.00;;;;;;;16.34;48.55;95805.17;105980;1259;74612;-80
2023/03/10 11:58:52;;;;;;;7.40;3.40;;;;;;;16.36;48.07;95806.98;105970;1256;71138;-79
2023/03/10 12:01:24;;;;;;;6.60;2.20;;;;;;;16.31;48.24;95810.05;106072;1256;72590;-79
2023/03/10 12:03:58;;;;;;;13.20;3.10;;;;;;;16.32;47.98;95811.24;106008;1258;61286;-78
2023/03/10 12:06:38;;;;;;;8.10;3.40;;;;;;;16.30;47.85;95819.00;105972;1255;61339;-80
2023/03/10 12:09:06;;;;;;;11.30;2.60;;;;;;;16.30;47.97;95811.59;106035;1260;74525;-78
2023/03/10 12:11:32;;;;;;;12.80;5.10;;;;;;;16.29;47.83;95804.94;106062;1255;72892;-79
2023/03/10 12:13:59;;;;;;;7.60;2.90;;;;;;;16.29;47.73;95809.63;105844;1261;62062;-78
2023/03/10 12:16:28;;;;;;;8.00;3.10;;;;;;;16.26;48.11;95807.88;105945;1256;61254;-79
2023/03/10 12:18:55;;;;;;;7.00;2.50;;;;;;;16.24;47.91;95802.85;105941;1256;61308;-80
2023/03/10 12:21:26;;;;;;;6.00;2.20;;;;;;;16.21;48.58;95799.61;105986;1256;61193;-81
2023/03/10 12:23:55;;;;;;;5.00;1.60;;;;;;;16.22;48.52;95800.15;106544;1255;69906;-80
2023/03/10 12:26:37;;;;;;;11.00;3.80;;;;;;;16.23;48.15;95786.28;106431;1256;72555;-78
2023/03/10 12:29:19;;;;;;;7.30;1.70;;;;;;;16.18;49.12;95789.27;106441;1255;61331;-78
2023/03/10 12:31:54;;;;;;;5.20;2.30;;;;;;;16.26;48.31;95785.55;105993;1256;61201;-78
2023/03/10 12:34:22;;;;;;;4.10;1.50;;;;;;;16.24;48.30;95788.09;106033;1256;72664;-78
2023/03/10 12:36:52;;;;;;;7.50;2.90;;;;;;;16.22;48.35;95783.70;106030;1260;70228;-78
2023/03/10 12:39:23;;;;;;;6.00;2.70;;;;;;;16.19;48.79;95770.86;106021;1256;72026;-80
2023/03/10 12:41:51;;;;;;;4.10;2.30;;;;;;;16.23;48.56;95775.20;105949;1259;61351;-79
2023/03/10 12:45:15;;;;;;;3.60;1.80;;;;;;;16.22;48.37;95776.59;105988;1255;61224;-79
2023/03/10 12:47:55;;;;;;;14.80;7.20;;;;;;;16.21;49.02;95772.76;105535;1261;74727;-79